createdAt,value
2023-05-11T00:00:15.448Z,0.70
2023-05-11T00:05:18.042Z,0.67
2023-05-11T00:10:21.854Z,0.50
2023-05-11T00:15:23.850Z,0.70
2023-05-11T00:20:25.715Z,0.80
2023-05-11T00:25:28.777Z,0.80
2023-05-11T00:30:32.446Z,0.70
2023-05-11T00:35:34.708Z,0.70
2023-05-11T00:40:41.069Z,0.80
2023-05-11T00:45:43.164Z,0.70
2023-05-11T00:50:45.330Z,0.60
2023-05-11T00:55:49.148Z,0.77
2023-05-11T01:00:51.329Z,0.60
2023-05-11T01:06:04.099Z,0.50
2023-05-11T01:11:15.018Z,0.60
2023-05-11T01:16:21.936Z,0.73
2023-05-11T01:21:24.224Z,1.43
2023-05-11T01:26:55.271Z,1.20
2023-05-11T01:32:00.669Z,0.80
2023-05-11T01:37:10.104Z,0.67
2023-05-11T01:42:12.539Z,0.63
2023-05-11T01:47:18.388Z,0.80
2023-05-11T01:52:24.475Z,0.73
2023-05-11T01:57:27.083Z,0.73
2023-05-11T02:02:34.201Z,0.70
2023-05-11T02:07:37.690Z,0.60
2023-05-11T02:12:42.159Z,0.50
2023-05-11T02:17:46.268Z,0.50
2023-05-11T02:22:48.845Z,0.60
2023-05-11T02:27:50.830Z,0.60
2023-05-11T02:32:57.797Z,0.63
2023-05-11T02:38:04.046Z,0.50
2023-05-11T02:43:12.337Z,0.40
2023-05-11T02:48:24.028Z,0.50
2023-05-11T02:53:31.537Z,0.53
2023-05-11T02:58:34.867Z,0.37
2023-05-11T03:03:38.445Z,0.40
2023-05-11T03:08:42.038Z,0.40
2023-05-11T03:13:45.344Z,0.40
2023-05-11T03:18:49.944Z,0.40
2023-05-11T03:23:52.144Z,0.40
2023-05-11T03:28:55.819Z,0.40
2023-05-11T03:33:59.235Z,0.50
2023-05-11T03:39:03.198Z,0.50
2023-05-11T03:44:07.853Z,0.60
2023-05-11T03:49:13.510Z,0.50
2023-05-11T03:54:15.807Z,0.50
2023-05-11T03:59:18.136Z,0.47
2023-05-11T04:04:21.496Z,0.30
2023-05-11T04:09:24.136Z,0.30
2023-05-11T04:14:26.325Z,1.33
2023-05-11T04:19:29.577Z,0.40
2023-05-11T04:24:31.518Z,0.40
2023-05-11T04:29:33.715Z,0.47
2023-05-11T04:34:37.055Z,0.40
2023-05-11T04:39:38.835Z,0.50
2023-05-11T04:44:41.003Z,0.50
2023-05-11T04:49:44.485Z,0.67
2023-05-11T04:54:46.246Z,0.40
2023-05-11T04:59:48.304Z,0.50
2023-05-11T05:04:51.712Z,0.40
2023-05-11T05:09:53.780Z,0.60
2023-05-11T05:14:55.642Z,0.70
2023-05-11T05:19:59.380Z,0.70
2023-05-11T05:25:01.860Z,0.67
2023-05-11T05:30:04.115Z,0.30
2023-05-11T05:35:08.402Z,0.50
2023-05-11T05:40:45.371Z,0.60
2023-05-11T05:46:10.666Z,0.73
2023-05-11T05:52:06.373Z,0.70
2023-05-11T05:57:08.673Z,0.50
2023-05-11T06:02:11.836Z,0.60
2023-05-11T06:07:15.730Z,0.77
2023-05-11T06:12:17.821Z,0.77
2023-05-11T06:17:20.077Z,0.70
2023-05-11T06:22:23.786Z,0.57
2023-05-11T06:27:25.920Z,0.60
2023-05-11T06:32:28.235Z,0.60
2023-05-11T06:37:32.455Z,0.40
2023-05-11T06:42:34.532Z,0.40
2023-05-11T06:47:37.238Z,0.40
2023-05-11T06:52:40.637Z,0.40
2023-05-11T06:57:42.803Z,0.40
2023-05-11T07:02:44.743Z,0.60
2023-05-11T07:07:48.587Z,0.67
2023-05-11T07:12:51.047Z,1.13
2023-05-11T07:17:53.746Z,1.40
2023-05-11T07:22:59.892Z,1.20
2023-05-11T07:28:01.942Z,1.10
2023-05-11T07:33:04.231Z,1.40
2023-05-11T07:38:09.774Z,1.07
2023-05-11T07:43:11.770Z,0.77
2023-05-11T07:48:14.343Z,0.60
2023-05-11T07:53:18.370Z,0.90
2023-05-11T07:58:20.188Z,0.80
2023-05-11T08:03:22.440Z,0.73
2023-05-11T08:08:26.266Z,1.00
2023-05-11T08:13:28.446Z,0.90
2023-05-11T08:18:30.427Z,1.10
2023-05-11T08:23:33.686Z,0.83
2023-05-11T08:28:35.529Z,1.00
2023-05-11T08:33:38.886Z,0.80
2023-05-11T08:38:42.800Z,1.00
2023-05-11T08:43:47.049Z,0.80
2023-05-11T08:48:49.802Z,1.07
2023-05-11T08:53:54.241Z,1.20
2023-05-11T08:58:57.146Z,1.10
2023-05-11T09:03:59.432Z,1.00
2023-05-11T09:09:03.598Z,1.23
2023-05-11T09:14:05.818Z,1.10
2023-05-11T09:19:07.806Z,1.40
2023-05-11T09:24:13.092Z,1.10
2023-05-11T09:29:16.115Z,0.90
2023-05-11T09:34:19.679Z,1.17
2023-05-11T09:44:36.991Z,0.90
2023-05-11T09:49:39.008Z,0.90
2023-05-11T09:54:46.616Z,0.97
2023-05-11T09:59:48.647Z,1.00
2023-05-11T10:04:51.295Z,1.30
2023-05-11T10:09:57.177Z,0.80
2023-05-11T10:15:05.133Z,1.00
2023-05-11T10:20:09.087Z,0.87
2023-05-11T10:25:13.947Z,0.90
2023-05-11T10:30:17.925Z,0.83
2023-05-11T10:35:22.164Z,0.90
2023-05-11T10:40:25.738Z,0.60
2023-05-11T10:45:31.125Z,0.97
2023-05-11T10:51:07.596Z,1.10
2023-05-11T10:56:27.102Z,0.37
2023-05-11T11:01:39.614Z,0.40
2023-05-11T11:06:43.294Z,0.30
2023-05-11T11:11:50.385Z,0.10
2023-05-11T11:17:27.592Z,0.30
2023-05-11T11:22:53.791Z,0.23
2023-05-11T11:28:00.640Z,0.20
2023-05-11T11:33:35.332Z,0.10
2023-05-11T11:39:01.338Z,0.10
2023-05-11T11:44:05.719Z,0.17
2023-05-11T11:49:09.370Z,0.07
2023-05-11T11:54:12.448Z,0.10
2023-05-11T11:59:16.518Z,0.20
2023-05-11T12:04:45.175Z,0.45
2023-05-11T12:09:47.719Z,0.10
2023-05-11T12:14:51.164Z,0.20
2023-05-11T12:19:53.385Z,0.10
2023-05-11T12:24:59.636Z,0.10
2023-05-11T12:30:04.187Z,0.10
2023-05-11T12:35:06.851Z,0.10
2023-05-11T12:40:13.041Z,0.30
2023-05-11T12:45:17.006Z,0.20
2023-05-11T12:50:19.966Z,0.10
2023-05-11T12:55:29.310Z,0.10
2023-05-11T13:00:32.809Z,0.60
2023-05-11T13:05:34.775Z,0.10
2023-05-11T13:10:37.182Z,0.20
2023-05-11T13:15:53.328Z,0.20
2023-05-11T13:21:07.630Z,0.33
2023-05-11T13:26:09.734Z,0.20
2023-05-11T13:31:13.331Z,0.20
2023-05-11T13:36:15.163Z,0.30
2023-05-11T13:41:17.211Z,0.30
2023-05-11T13:46:20.938Z,0.40
2023-05-11T13:51:23.217Z,0.37
2023-05-11T13:56:25.033Z,0.40
2023-05-11T14:01:28.499Z,0.50
2023-05-11T14:06:30.391Z,0.60
2023-05-11T14:11:32.279Z,0.67
2023-05-11T14:16:35.467Z,0.50
2023-05-11T14:21:37.644Z,0.60
2023-05-11T14:26:39.896Z,0.50
2023-05-11T14:31:43.281Z,0.60
2023-05-11T14:36:45.336Z,0.70
2023-05-11T14:41:47.949Z,0.87
2023-05-11T14:46:51.478Z,0.57
2023-05-11T14:51:53.411Z,0.47
2023-05-11T14:56:57.039Z,0.30
2023-05-11T15:02:02.365Z,0.50
2023-05-11T15:07:04.846Z,0.50
2023-05-11T15:12:07.438Z,0.57
2023-05-11T15:17:11.245Z,0.47
2023-05-11T15:22:13.754Z,0.80
2023-05-11T15:27:15.776Z,1.77
2023-05-11T15:32:19.051Z,2.10
2023-05-11T15:37:21.354Z,0.63
2023-05-11T15:42:23.843Z,0.43
2023-05-11T15:47:27.430Z,0.60
2023-05-11T15:52:29.737Z,0.90
2023-05-11T15:57:34.061Z,0.67
2023-05-11T16:02:40.072Z,0.70
2023-05-11T16:07:42.531Z,0.40
2023-05-11T16:12:44.688Z,0.43
2023-05-11T16:17:48.696Z,0.53
2023-05-11T16:22:50.943Z,0.60
2023-05-11T16:27:53.546Z,0.43
2023-05-11T16:32:57.238Z,0.50
2023-05-11T16:38:00.721Z,0.70
2023-05-11T16:43:02.781Z,0.80
2023-05-11T16:48:07.131Z,0.70
2023-05-11T16:53:09.874Z,0.60
2023-05-11T16:58:12.879Z,0.93
2023-05-11T17:03:17.230Z,1.20
2023-05-11T17:08:20.109Z,0.73
2023-05-11T17:13:23.012Z,0.60
2023-05-11T17:18:27.871Z,1.00
2023-05-11T17:23:30.671Z,1.00
2023-05-11T17:28:33.463Z,2.00
2023-05-11T17:33:37.699Z,2.77
2023-05-11T17:38:40.688Z,0.90
2023-05-11T17:43:43.455Z,0.50
2023-05-11T17:48:48.016Z,0.90
2023-05-11T17:53:51.227Z,0.63
2023-05-11T17:58:53.986Z,0.70
2023-05-11T18:03:59.776Z,0.90
2023-05-11T18:09:04.087Z,0.83
2023-05-11T18:14:06.975Z,1.30
2023-05-11T18:19:14.413Z,0.90
2023-05-11T18:24:20.467Z,0.90
2023-05-11T18:29:24.013Z,0.70
2023-05-11T18:34:28.945Z,0.73
2023-05-11T18:39:32.048Z,1.03
2023-05-11T18:44:38.173Z,1.03
2023-05-11T18:49:42.883Z,1.10
2023-05-11T18:54:46.702Z,1.30
2023-05-11T18:59:53.369Z,1.87
2023-05-11T19:04:57.961Z,1.50
2023-05-11T19:10:01.540Z,1.30
2023-05-11T19:15:05.341Z,1.23
2023-05-11T19:20:12.401Z,1.30
2023-05-11T19:25:15.776Z,1.20
2023-05-11T19:30:19.364Z,1.20
2023-05-11T19:35:24.564Z,1.20
2023-05-11T19:40:45.529Z,1.37
2023-05-11T19:45:49.278Z,1.10
2023-05-11T19:50:53.621Z,0.90
2023-05-11T19:55:57.027Z,0.80
2023-05-11T20:01:00.004Z,0.90
2023-05-11T20:06:04.573Z,1.20
2023-05-11T20:11:08.022Z,0.87
2023-05-11T20:16:11.398Z,0.70
2023-05-11T20:21:16.470Z,1.00
2023-05-11T20:26:19.290Z,0.87
2023-05-11T20:31:24.101Z,0.80
2023-05-11T20:36:29.960Z,0.90
2023-05-11T20:41:32.566Z,0.83
2023-05-11T20:46:35.370Z,0.80
2023-05-11T20:51:39.203Z,0.60
2023-05-11T20:56:41.010Z,0.70
2023-05-11T21:01:45.553Z,0.80
2023-05-11T21:06:49.210Z,0.50
2023-05-11T21:11:51.377Z,0.80
2023-05-11T21:16:53.969Z,0.63
2023-05-11T21:21:57.255Z,0.90
2023-05-11T21:26:59.689Z,0.80
2023-05-11T21:32:02.584Z,1.20
2023-05-11T21:37:07.024Z,1.27
2023-05-11T21:42:09.104Z,0.70
2023-05-11T21:47:11.047Z,0.90
2023-05-11T21:52:14.795Z,0.80
2023-05-11T21:57:17.724Z,0.80
2023-05-11T22:02:22.439Z,0.80
2023-05-11T22:07:26.053Z,0.83
2023-05-11T22:12:28.184Z,1.23
2023-05-11T22:17:31.080Z,1.20
2023-05-11T22:22:35.885Z,1.10
2023-05-11T22:27:37.721Z,0.90
2023-05-11T22:32:39.788Z,1.10
2023-05-11T22:37:43.009Z,0.67
2023-05-11T22:42:44.871Z,0.97
2023-05-11T22:47:47.276Z,1.00
2023-05-11T22:52:50.729Z,0.83
2023-05-11T22:57:52.862Z,0.70
2023-05-11T23:02:54.687Z,0.80
2023-05-11T23:08:00.024Z,0.70
2023-05-11T23:13:05.125Z,0.90
2023-05-11T23:18:07.749Z,0.90
2023-05-11T23:23:11.391Z,1.10
2023-05-11T23:28:13.399Z,1.07
2023-05-11T23:33:15.586Z,0.80
2023-05-11T23:38:18.910Z,0.93
2023-05-11T23:43:22.431Z,0.90
2023-05-11T23:48:24.707Z,1.27
2023-05-11T23:53:28.989Z,1.00
2023-05-11T23:58:30.962Z,0.90
